sensor_id;sensor_type;location;lat;lon;timestamp;pressure;altitude;pressure_sealevel;temperature;humidity
64687;BME280;51113;53.646;-113.674;2023-04-23T00:00:13;93579.88;;;10.78;28.38
64687;BME280;51113;53.646;-113.674;2023-04-23T00:02:43;93611.25;;;11.17;28.80
64687;BME280;51113;53.646;-113.674;2023-04-23T00:05:14;93605.03;;;11.08;29.16
64687;BME280;51113;53.646;-113.674;2023-04-23T00:07:44;93600.13;;;10.96;29.04
64687;BME280;51113;53.646;-113.674;2023-04-23T00:10:13;93598.84;;;10.79;29.43
64687;BME280;51113;53.646;-113.674;2023-04-23T00:12:42;93601.44;;;10.79;29.23
64687;BME280;51113;53.646;-113.674;2023-04-23T00:15:11;93594.69;;;10.78;29.17
64687;BME280;51113;53.646;-113.674;2023-04-23T00:17:41;93597.00;;;10.89;29.54
64687;BME280;51113;53.646;-113.674;2023-04-23T00:20:10;93601.97;;;10.71;29.73
64687;BME280;51113;53.646;-113.674;2023-04-23T00:22:39;93559.69;;;10.40;29.25
64687;BME280;51113;53.646;-113.674;2023-04-23T00:25:09;93566.41;;;10.56;29.43
64687;BME280;51113;53.646;-113.674;2023-04-23T00:27:38;93594.69;;;10.78;29.72
64687;BME280;51113;53.646;-113.674;2023-04-23T00:30:07;93557.06;;;10.50;29.97
64687;BME280;51113;53.646;-113.674;2023-04-23T00:32:36;93533.22;;;10.32;30.24
64687;BME280;51113;53.646;-113.674;2023-04-23T00:35:05;93589.53;;;10.67;29.74
64687;BME280;51113;53.646;-113.674;2023-04-23T00:37:33;93552.16;;;10.43;29.77
64687;BME280;51113;53.646;-113.674;2023-04-23T00:40:02;93573.44;;;10.60;29.90
64687;BME280;51113;53.646;-113.674;2023-04-23T00:42:32;93555.28;;;10.45;29.14
64687;BME280;51113;53.646;-113.674;2023-04-23T00:45:01;93583.56;;;10.62;29.47
64687;BME280;51113;53.646;-113.674;2023-04-23T00:47:30;93581.72;;;10.62;29.88
64687;BME280;51113;53.646;-113.674;2023-04-23T00:50:00;93573.13;;;10.77;29.59
64687;BME280;51113;53.646;-113.674;2023-04-23T00:52:29;93542.03;;;10.21;29.47
64687;BME280;51113;53.646;-113.674;2023-04-23T00:54:57;93543.56;;;10.07;29.93
64687;BME280;51113;53.646;-113.674;2023-04-23T00:57:26;93562.03;;;10.26;29.89
64687;BME280;51113;53.646;-113.674;2023-04-23T00:59:55;93569.78;;;10.11;30.68
64687;BME280;51113;53.646;-113.674;2023-04-23T01:02:25;93565.88;;;10.08;30.42
64687;BME280;51113;53.646;-113.674;2023-04-23T01:04:56;93565.88;;;10.03;30.74
64687;BME280;51113;53.646;-113.674;2023-04-23T01:07:25;93527.97;;;9.66;30.56
64687;BME280;51113;53.646;-113.674;2023-04-23T01:09:55;93555.50;;;9.88;30.81
64687;BME280;51113;53.646;-113.674;2023-04-23T01:12:24;93517.34;;;9.63;31.17
64687;BME280;51113;53.646;-113.674;2023-04-23T01:14:52;93547.94;;;9.76;31.02
64687;BME280;51113;53.646;-113.674;2023-04-23T01:17:21;93512.66;;;9.50;30.89
64687;BME280;51113;53.646;-113.674;2023-04-23T01:19:50;93540.94;;;9.71;31.09
64687;BME280;51113;53.646;-113.674;2023-04-23T01:22:19;93541.47;;;9.68;31.47
64687;BME280;51113;53.646;-113.674;2023-04-23T01:24:48;93535.75;;;9.66;31.16
64687;BME280;51113;53.646;-113.674;2023-04-23T01:27:17;93541.19;;;9.65;31.24
64687;BME280;51113;53.646;-113.674;2023-04-23T01:29:47;93538.34;;;9.71;30.77
64687;BME280;51113;53.646;-113.674;2023-04-23T01:32:16;93534.97;;;9.71;31.28
64687;BME280;51113;53.646;-113.674;2023-04-23T01:34:46;93532.13;;;9.73;32.10
64687;BME280;51113;53.646;-113.674;2023-04-23T01:37:15;93484.63;;;9.42;31.41
64687;BME280;51113;53.646;-113.674;2023-04-23T01:39:44;93532.38;;;9.71;31.39
64687;BME280;51113;53.646;-113.674;2023-04-23T01:42:12;93526.94;;;9.67;31.23
64687;BME280;51113;53.646;-113.674;2023-04-23T01:44:41;93518.91;;;9.64;31.61
64687;BME280;51113;53.646;-113.674;2023-04-23T01:47:10;93516.56;;;9.62;31.35
64687;BME280;51113;53.646;-113.674;2023-04-23T01:49:39;93532.09;;;9.52;31.36
64687;BME280;51113;53.646;-113.674;2023-04-23T01:52:07;93516.78;;;9.46;31.75
64687;BME280;51113;53.646;-113.674;2023-04-23T01:54:36;93492.63;;;9.25;31.49
64687;BME280;51113;53.646;-113.674;2023-04-23T01:57:05;93525.59;;;9.39;31.50
64687;BME280;51113;53.646;-113.674;2023-04-23T01:59:34;93511.81;;;9.29;31.93
64687;BME280;51113;53.646;-113.674;2023-04-23T02:02:03;93511.81;;;9.24;32.93
64687;BME280;51113;53.646;-113.674;2023-04-23T02:04:33;93449.25;;;8.85;32.32
64687;BME280;51113;53.646;-113.674;2023-04-23T02:07:02;93520.38;;;9.24;32.56
64687;BME280;51113;53.646;-113.674;2023-04-23T02:09:31;93480.41;;;9.05;32.38
64687;BME280;51113;53.646;-113.674;2023-04-23T02:12:00;93514.13;;;9.20;32.30
64687;BME280;51113;53.646;-113.674;2023-04-23T02:14:29;93512.31;;;9.16;32.37
64687;BME280;51113;53.646;-113.674;2023-04-23T02:16:57;93516.72;;;9.15;32.57
64687;BME280;51113;53.646;-113.674;2023-04-23T02:19:26;93522.63;;;9.05;33.23
64687;BME280;51113;53.646;-113.674;2023-04-23T02:21:56;93510.16;;;8.97;32.58
64687;BME280;51113;53.646;-113.674;2023-04-23T02:24:25;93509.13;;;8.98;32.79
64687;BME280;51113;53.646;-113.674;2023-04-23T02:26:53;93510.16;;;8.92;33.01
64687;BME280;51113;53.646;-113.674;2023-04-23T02:29:22;93503.38;;;8.86;32.70
64687;BME280;51113;53.646;-113.674;2023-04-23T02:31:51;93502.88;;;8.84;32.71
64687;BME280;51113;53.646;-113.674;2023-04-23T02:34:20;93476.34;;;8.62;32.66
64687;BME280;51113;53.646;-113.674;2023-04-23T02:36:48;93478.38;;;8.50;33.39
64687;BME280;51113;53.646;-113.674;2023-04-23T02:39:17;93507.41;;;8.62;33.39
64687;BME280;51113;53.646;-113.674;2023-04-23T02:41:45;93500.13;;;8.54;33.31
64687;BME280;51113;53.646;-113.674;2023-04-23T02:44:14;93506.81;;;8.45;33.48
64687;BME280;51113;53.646;-113.674;2023-04-23T02:46:42;93505.75;;;8.40;33.76
64687;BME280;51113;53.646;-113.674;2023-04-23T02:49:11;93502.63;;;8.38;33.55
64687;BME280;51113;53.646;-113.674;2023-04-23T02:51:41;93506.31;;;8.48;33.08
64687;BME280;51113;53.646;-113.674;2023-04-23T02:54:10;93462.69;;;8.24;33.40
64687;BME280;51113;53.646;-113.674;2023-04-23T02:56:39;93506.31;;;8.48;33.24
64687;BME280;51113;53.646;-113.674;2023-04-23T02:59:07;93499.50;;;8.36;33.80
64687;BME280;51113;53.646;-113.674;2023-04-23T03:01:36;93497.66;;;8.32;33.48
64687;BME280;51113;53.646;-113.674;2023-04-23T03:04:04;93500.28;;;8.37;33.53
64687;BME280;51113;53.646;-113.674;2023-04-23T03:06:33;93503.38;;;8.34;33.37
64687;BME280;51113;53.646;-113.674;2023-04-23T03:09:03;93502.59;;;8.33;33.57
64687;BME280;51113;53.646;-113.674;2023-04-23T03:11:32;93502.34;;;8.35;33.47
64687;BME280;51113;53.646;-113.674;2023-04-23T03:14:01;93499.19;;;8.28;33.62
64687;BME280;51113;53.646;-113.674;2023-04-23T03:16:30;93507.47;;;8.30;33.59
64687;BME280;51113;53.646;-113.674;2023-04-23T03:18:59;93510.38;;;8.33;33.62
64687;BME280;51113;53.646;-113.674;2023-04-23T03:21:28;93512.13;;;8.28;34.00
64687;BME280;51113;53.646;-113.674;2023-04-23T03:23:57;93481.69;;;8.03;34.30
64687;BME280;51113;53.646;-113.674;2023-04-23T03:26:25;93516.97;;;8.19;34.69
64687;BME280;51113;53.646;-113.674;2023-04-23T03:28:54;93515.66;;;8.17;34.88
64687;BME280;51113;53.646;-113.674;2023-04-23T03:31:22;93499.72;;;7.93;35.43
64687;BME280;51113;53.646;-113.674;2023-04-23T03:33:51;93512.75;;;8.08;35.35
64687;BME280;51113;53.646;-113.674;2023-04-23T03:36:20;93515.88;;;8.10;35.16
64687;BME280;51113;53.646;-113.674;2023-04-23T03:38:48;93517.94;;;8.08;35.55
64687;BME280;51113;53.646;-113.674;2023-04-23T03:41:16;93483.84;;;7.79;35.84
64687;BME280;51113;53.646;-113.674;2023-04-23T03:43:45;93480.72;;;7.77;35.75
64687;BME280;51113;53.646;-113.674;2023-04-23T03:46:13;93513.13;;;7.90;36.58
64687;BME280;51113;53.646;-113.674;2023-04-23T03:48:42;93513.16;;;7.95;36.13
64687;BME280;51113;53.646;-113.674;2023-04-23T03:51:10;93518.34;;;7.95;36.61
64687;BME280;51113;53.646;-113.674;2023-04-23T03:53:39;93515.22;;;7.93;36.43
64687;BME280;51113;53.646;-113.674;2023-04-23T03:56:08;93485.03;;;7.66;36.59
64687;BME280;51113;53.646;-113.674;2023-04-23T03:58:37;93515.91;;;7.83;36.97
64687;BME280;51113;53.646;-113.674;2023-04-23T04:01:05;93503.72;;;7.78;37.26
64687;BME280;51113;53.646;-113.674;2023-04-23T04:03:34;93509.34;;;7.70;37.33
64687;BME280;51113;53.646;-113.674;2023-04-23T04:06:04;93510.66;;;7.73;37.08
64687;BME280;51113;53.646;-113.674;2023-04-23T04:08:32;93511.94;;;7.70;36.82
64687;BME280;51113;53.646;-113.674;2023-04-23T04:11:01;93514.00;;;7.68;36.65
64687;BME280;51113;53.646;-113.674;2023-04-23T04:13:30;93523.78;;;7.66;37.12
64687;BME280;51113;53.646;-113.674;2023-04-23T04:15:59;93485.59;;;7.41;37.38
64687;BME280;51113;53.646;-113.674;2023-04-23T04:18:28;93515.69;;;7.58;37.21
64687;BME280;51113;53.646;-113.674;2023-04-23T04:20:56;93476.97;;;7.31;37.43
64687;BME280;51113;53.646;-113.674;2023-04-23T04:23:25;93504.78;;;7.51;37.22
64687;BME280;51113;53.646;-113.674;2023-04-23T04:25:53;93503.47;;;7.48;37.06
64687;BME280;51113;53.646;-113.674;2023-04-23T04:28:23;93500.06;;;7.42;37.91
64687;BME280;51113;53.646;-113.674;2023-04-23T04:30:54;93505.22;;;7.42;37.32
64687;BME280;51113;53.646;-113.674;2023-04-23T04:33:24;93504.16;;;7.38;37.35
64687;BME280;51113;53.646;-113.674;2023-04-23T04:35:53;93502.59;;;7.37;37.41
64687;BME280;51113;53.646;-113.674;2023-04-23T04:38:22;93463.06;;;7.10;36.89
64687;BME280;51113;53.646;-113.674;2023-04-23T04:40:54;93489.09;;;7.30;37.36
64687;BME280;51113;53.646;-113.674;2023-04-23T04:43:26;93466.91;;;7.07;37.19
64687;BME280;51113;53.646;-113.674;2023-04-23T04:45:54;93439.63;;;6.90;37.50
64687;BME280;51113;53.646;-113.674;2023-04-23T04:48:23;93496.75;;;7.20;37.43
64687;BME280;51113;53.646;-113.674;2023-04-23T04:50:52;93498.00;;;7.18;37.52
64687;BME280;51113;53.646;-113.674;2023-04-23T04:53:21;93459.00;;;6.92;37.88
64687;BME280;51113;53.646;-113.674;2023-04-23T04:55:49;93491.28;;;7.17;37.20
64687;BME280;51113;53.646;-113.674;2023-04-23T04:58:19;93483.19;;;7.08;37.83
64687;BME280;51113;53.646;-113.674;2023-04-23T05:00:47;93479.00;;;7.02;37.70
64687;BME280;51113;53.646;-113.674;2023-04-23T05:03:19;93459.25;;;6.91;37.61
64687;BME280;51113;53.646;-113.674;2023-04-23T05:05:48;93480.78;;;7.01;37.76
64687;BME280;51113;53.646;-113.674;2023-04-23T05:08:17;93478.22;;;7.01;37.33
64687;BME280;51113;53.646;-113.674;2023-04-23T05:10:46;93468.38;;;6.98;37.53
64687;BME280;51113;53.646;-113.674;2023-04-23T05:13:15;93473.78;;;6.97;37.40
64687;BME280;51113;53.646;-113.674;2023-04-23T05:15:45;93463.88;;;6.89;37.76
64687;BME280;51113;53.646;-113.674;2023-04-23T05:18:13;93458.13;;;6.82;37.65
64687;BME280;51113;53.646;-113.674;2023-04-23T05:20:42;93416.78;;;6.55;37.60
64687;BME280;51113;53.646;-113.674;2023-04-23T05:23:11;93458.84;;;6.77;37.58
64687;BME280;51113;53.646;-113.674;2023-04-23T05:25:39;93422.69;;;6.50;37.46
64687;BME280;51113;53.646;-113.674;2023-04-23T05:28:08;93442.53;;;6.71;37.73
64687;BME280;51113;53.646;-113.674;2023-04-23T05:30:37;93448.16;;;6.68;37.45
64687;BME280;51113;53.646;-113.674;2023-04-23T05:33:05;93446.84;;;6.66;37.82
64687;BME280;51113;53.646;-113.674;2023-04-23T05:35:34;93437.97;;;6.57;37.93
64687;BME280;51113;53.646;-113.674;2023-04-23T05:38:03;93432.22;;;6.50;37.74
64687;BME280;51113;53.646;-113.674;2023-04-23T05:40:33;93405.09;;;6.25;37.79
64687;BME280;51113;53.646;-113.674;2023-04-23T05:43:02;93431.63;;;6.42;38.15
64687;BME280;51113;53.646;-113.674;2023-04-23T05:45:31;93397.84;;;6.22;37.99
64687;BME280;51113;53.646;-113.674;2023-04-23T05:47:59;93424.28;;;6.34;38.42
64687;BME280;51113;53.646;-113.674;2023-04-23T05:50:28;93420.16;;;6.33;37.95
64687;BME280;51113;53.646;-113.674;2023-04-23T05:52:57;93421.41;;;6.31;37.90
64687;BME280;51113;53.646;-113.674;2023-04-23T05:55:26;93417.69;;;6.22;38.40
64687;BME280;51113;53.646;-113.674;2023-04-23T05:57:55;93415.34;;;6.20;38.42
64687;BME280;51113;53.646;-113.674;2023-04-23T06:00:23;93408.50;;;6.09;39.63
64687;BME280;51113;53.646;-113.674;2023-04-23T06:02:52;93400.53;;;6.10;39.48
64687;BME280;51113;53.646;-113.674;2023-04-23T06:05:21;93403.34;;;6.09;38.77
64687;BME280;51113;53.646;-113.674;2023-04-23T06:07:50;93407.41;;;6.05;38.96
64687;BME280;51113;53.646;-113.674;2023-04-23T06:10:18;93396.81;;;6.01;39.39
64687;BME280;51113;53.646;-113.674;2023-04-23T06:12:47;93401.97;;;6.01;38.79
64687;BME280;51113;53.646;-113.674;2023-04-23T06:15:16;93390.25;;;5.94;39.06
64687;BME280;51113;53.646;-113.674;2023-04-23T06:17:46;93386.81;;;5.88;39.36
64687;BME280;51113;53.646;-113.674;2023-04-23T06:20:14;93384.03;;;5.90;38.92
64687;BME280;51113;53.646;-113.674;2023-04-23T06:22:42;93394.78;;;5.87;39.78
64687;BME280;51113;53.646;-113.674;2023-04-23T06:25:12;93318.13;;;5.38;39.62
64687;BME280;51113;53.646;-113.674;2023-04-23T06:27:40;93350.72;;;5.49;39.88
64687;BME280;51113;53.646;-113.674;2023-04-23T06:30:09;93336.31;;;5.48;39.91
64687;BME280;51113;53.646;-113.674;2023-04-23T06:32:38;93372.94;;;5.72;40.24
64687;BME280;51113;53.646;-113.674;2023-04-23T06:35:07;93331.31;;;5.42;40.00
64687;BME280;51113;53.646;-113.674;2023-04-23T06:37:36;93382.63;;;5.65;39.76
64687;BME280;51113;53.646;-113.674;2023-04-23T06:40:05;93371.72;;;5.58;40.28
64687;BME280;51113;53.646;-113.674;2023-04-23T06:42:34;93372.72;;;5.57;40.78
64687;BME280;51113;53.646;-113.674;2023-04-23T06:45:02;93375.22;;;5.52;40.89
64687;BME280;51113;53.646;-113.674;2023-04-23T06:47:32;93335.22;;;5.28;40.56
64687;BME280;51113;53.646;-113.674;2023-04-23T06:50:01;93355.13;;;5.32;40.82
64687;BME280;51113;53.646;-113.674;2023-04-23T06:52:29;93370.16;;;5.40;41.12
64687;BME280;51113;53.646;-113.674;2023-04-23T06:54:58;93370.41;;;5.39;41.04
64687;BME280;51113;53.646;-113.674;2023-04-23T06:57:28;93340.00;;;5.19;40.86
64687;BME280;51113;53.646;-113.674;2023-04-23T06:59:56;93358.47;;;5.33;40.93
64687;BME280;51113;53.646;-113.674;2023-04-23T07:02:25;93344.91;;;5.21;41.48
64687;BME280;51113;53.646;-113.674;2023-04-23T07:04:54;93322.59;;;5.09;41.05
64687;BME280;51113;53.646;-113.674;2023-04-23T07:07:22;93349.59;;;5.24;41.13
64687;BME280;51113;53.646;-113.674;2023-04-23T07:09:52;93353.72;;;5.25;41.56
64687;BME280;51113;53.646;-113.674;2023-04-23T07:12:21;93355.19;;;5.21;41.17
64687;BME280;51113;53.646;-113.674;2023-04-23T07:14:49;93355.97;;;5.21;41.40
64687;BME280;51113;53.646;-113.674;2023-04-23T07:17:20;93302.16;;;4.86;42.16
64687;BME280;51113;53.646;-113.674;2023-04-23T07:19:48;93355.34;;;5.14;42.29
64687;BME280;51113;53.646;-113.674;2023-04-23T07:22:18;93354.56;;;5.13;42.06
64687;BME280;51113;53.646;-113.674;2023-04-23T07:24:46;93318.94;;;4.89;41.98
64687;BME280;51113;53.646;-113.674;2023-04-23T07:27:14;93314.56;;;4.89;41.88
64687;BME280;51113;53.646;-113.674;2023-04-23T07:29:43;93319.63;;;4.84;41.71
64687;BME280;51113;53.646;-113.674;2023-04-23T07:32:11;93355.50;;;5.07;41.75
64687;BME280;51113;53.646;-113.674;2023-04-23T07:34:40;93348.81;;;5.06;41.63
64687;BME280;51113;53.646;-113.674;2023-04-23T07:37:10;93352.84;;;5.02;41.64
64687;BME280;51113;53.646;-113.674;2023-04-23T07:39:38;93346.16;;;5.01;42.17
64687;BME280;51113;53.646;-113.674;2023-04-23T07:42:10;93294.91;;;4.66;42.08
64687;BME280;51113;53.646;-113.674;2023-04-23T07:44:38;93339.34;;;4.95;41.94
64687;BME280;51113;53.646;-113.674;2023-04-23T07:47:07;93341.47;;;4.98;42.11
64687;BME280;51113;53.646;-113.674;2023-04-23T07:49:35;93338.34;;;4.96;42.18
64687;BME280;51113;53.646;-113.674;2023-04-23T07:52:04;93326.09;;;4.86;41.98
64687;BME280;51113;53.646;-113.674;2023-04-23T07:54:33;93305.75;;;4.68;42.27
64687;BME280;51113;53.646;-113.674;2023-04-23T07:57:02;93299.28;;;4.66;42.17
64687;BME280;51113;53.646;-113.674;2023-04-23T07:59:31;93339.28;;;4.90;41.85
64687;BME280;51113;53.646;-113.674;2023-04-23T08:01:59;93299.97;;;4.61;42.21
64687;BME280;51113;53.646;-113.674;2023-04-23T08:04:28;93293.50;;;4.59;42.13
64687;BME280;51113;53.646;-113.674;2023-04-23T08:06:57;93291.94;;;4.58;41.95
64687;BME280;51113;53.646;-113.674;2023-04-23T08:09:25;93331.41;;;4.80;42.50
64687;BME280;51113;53.646;-113.674;2023-04-23T08:11:54;93331.31;;;4.75;42.21
64687;BME280;51113;53.646;-113.674;2023-04-23T08:14:24;93332.88;;;4.76;42.67
64687;BME280;51113;53.646;-113.674;2023-04-23T08:16:52;93326.63;;;4.72;42.51
64687;BME280;51113;53.646;-113.674;2023-04-23T08:19:21;93325.53;;;4.68;42.17
64687;BME280;51113;53.646;-113.674;2023-04-23T08:21:50;93327.00;;;4.64;42.95
64687;BME280;51113;53.646;-113.674;2023-04-23T08:24:19;93324.34;;;4.59;42.61
64687;BME280;51113;53.646;-113.674;2023-04-23T08:26:48;93318.97;;;4.60;42.62
64687;BME280;51113;53.646;-113.674;2023-04-23T08:29:17;93323.16;;;4.49;43.48
64687;BME280;51113;53.646;-113.674;2023-04-23T08:31:45;93327.66;;;4.42;43.41
64687;BME280;51113;53.646;-113.674;2023-04-23T08:34:14;93329.78;;;4.45;43.13
64687;BME280;51113;53.646;-113.674;2023-04-23T08:36:42;93327.94;;;4.29;43.85
64687;BME280;51113;53.646;-113.674;2023-04-23T08:39:13;93322.56;;;4.31;43.65
64687;BME280;51113;53.646;-113.674;2023-04-23T08:41:43;93332.44;;;4.22;43.73
64687;BME280;51113;53.646;-113.674;2023-04-23T08:44:19;93326.19;;;4.18;44.07
64687;BME280;51113;53.646;-113.674;2023-04-23T08:46:49;93327.44;;;4.15;44.68
64687;BME280;51113;53.646;-113.674;2023-04-23T08:49:20;93324.78;;;4.10;44.73
64687;BME280;51113;53.646;-113.674;2023-04-23T08:51:51;93308.56;;;4.10;44.09
64687;BME280;51113;53.646;-113.674;2023-04-23T08:54:24;93323.66;;;4.06;44.18
64687;BME280;51113;53.646;-113.674;2023-04-23T08:56:57;93314.63;;;4.04;44.36
64687;BME280;51113;53.646;-113.674;2023-04-23T08:59:29;93300.44;;;4.01;44.40
64687;BME280;51113;53.646;-113.674;2023-04-23T09:01:58;93273.97;;;3.72;44.22
64687;BME280;51113;53.646;-113.674;2023-04-23T09:04:29;93260.13;;;3.62;44.67
64687;BME280;51113;53.646;-113.674;2023-04-23T09:06:58;93269.28;;;3.69;44.49
64687;BME280;51113;53.646;-113.674;2023-04-23T09:09:28;93300.63;;;3.83;45.03
64687;BME280;51113;53.646;-113.674;2023-04-23T09:11:57;93304.97;;;3.82;44.91
64687;BME280;51113;53.646;-113.674;2023-04-23T09:14:26;93301.28;;;3.78;45.36
64687;BME280;51113;53.646;-113.674;2023-04-23T09:16:54;93296.94;;;3.79;45.24
64687;BME280;51113;53.646;-113.674;2023-04-23T09:19:25;93297.41;;;3.76;45.21
64687;BME280;51113;53.646;-113.674;2023-04-23T09:21:58;93294.72;;;3.71;45.30
64687;BME280;51113;53.646;-113.674;2023-04-23T09:24:29;93283.91;;;3.57;45.26
64687;BME280;51113;53.646;-113.674;2023-04-23T09:26:57;93260.75;;;3.40;45.27
64687;BME280;51113;53.646;-113.674;2023-04-23T09:29:26;93237.00;;;3.21;46.10
64687;BME280;51113;53.646;-113.674;2023-04-23T09:32:06;93284.28;;;3.49;46.12
64687;BME280;51113;53.646;-113.674;2023-04-23T09:34:36;93256.09;;;3.14;46.61
64687;BME280;51113;53.646;-113.674;2023-04-23T09:37:05;93295.53;;;3.48;45.49
64687;BME280;51113;53.646;-113.674;2023-04-23T09:39:38;93250.63;;;3.22;45.59
64687;BME280;51113;53.646;-113.674;2023-04-23T09:42:08;93260.88;;;3.22;46.18
64687;BME280;51113;53.646;-113.674;2023-04-23T09:44:39;93290.06;;;3.44;45.96
64687;BME280;51113;53.646;-113.674;2023-04-23T09:47:08;93296.22;;;3.43;46.00
64687;BME280;51113;53.646;-113.674;2023-04-23T09:49:46;93306.16;;;3.28;46.68
64687;BME280;51113;53.646;-113.674;2023-04-23T09:52:15;93235.81;;;2.77;47.01
64687;BME280;51113;53.646;-113.674;2023-04-23T09:54:45;93299.91;;;3.12;46.40
64687;BME280;51113;53.646;-113.674;2023-04-23T09:57:15;93309.50;;;3.17;47.12
64687;BME280;51113;53.646;-113.674;2023-04-23T09:59:43;93301.25;;;3.03;47.52
64687;BME280;51113;53.646;-113.674;2023-04-23T10:02:26;93303.47;;;3.00;47.95
64687;BME280;51113;53.646;-113.674;2023-04-23T10:05:00;93304.72;;;2.97;47.44
64687;BME280;51113;53.646;-113.674;2023-04-23T10:07:49;93261.41;;;2.66;48.09
64687;BME280;51113;53.646;-113.674;2023-04-23T10:10:18;93262.31;;;2.71;47.63
64687;BME280;51113;53.646;-113.674;2023-04-23T10:12:47;93302.78;;;2.81;48.03
64687;BME280;51113;53.646;-113.674;2023-04-23T10:15:24;93266.31;;;2.55;48.18
64687;BME280;51113;53.646;-113.674;2023-04-23T10:17:54;93305.25;;;2.76;48.26
64687;BME280;51113;53.646;-113.674;2023-04-23T10:20:22;93317.28;;;2.75;48.67
64687;BME280;51113;53.646;-113.674;2023-04-23T10:22:52;93292.19;;;2.66;48.26
64687;BME280;51113;53.646;-113.674;2023-04-23T10:25:23;93301.22;;;2.68;49.08
64687;BME280;51113;53.646;-113.674;2023-04-23T10:27:54;93266.06;;;2.45;49.24
64687;BME280;51113;53.646;-113.674;2023-04-23T10:30:24;93293.75;;;2.67;48.79
64687;BME280;51113;53.646;-113.674;2023-04-23T10:32:54;93293.06;;;2.59;49.46
64687;BME280;51113;53.646;-113.674;2023-04-23T10:35:24;93292.50;;;2.57;49.64
64687;BME280;51113;53.646;-113.674;2023-04-23T10:37:53;93285.13;;;2.49;49.43
64687;BME280;51113;53.646;-113.674;2023-04-23T10:40:28;93259.00;;;2.29;49.99
64687;BME280;51113;53.646;-113.674;2023-04-23T10:42:58;93282.78;;;2.48;49.58
64687;BME280;51113;53.646;-113.674;2023-04-23T10:45:29;93283.91;;;2.52;49.62
64687;BME280;51113;53.646;-113.674;2023-04-23T10:47:59;93271.44;;;2.55;49.70
64687;BME280;51113;53.646;-113.674;2023-04-23T10:50:28;93239.63;;;2.21;49.99
64687;BME280;51113;53.646;-113.674;2023-04-23T10:52:57;93271.19;;;2.45;50.31
64687;BME280;51113;53.646;-113.674;2023-04-23T10:55:30;93265.06;;;2.46;49.75
64687;BME280;51113;53.646;-113.674;2023-04-23T10:58:04;93229.38;;;2.21;50.04
64687;BME280;51113;53.646;-113.674;2023-04-23T11:06:13;93253.78;;;2.36;50.73
64687;BME280;51113;53.646;-113.674;2023-04-23T11:08:52;93253.66;;;2.31;50.87
64687;BME280;51113;53.646;-113.674;2023-04-23T11:11:40;93211.84;;;2.07;50.47
64687;BME280;51113;53.646;-113.674;2023-04-23T11:14:12;93239.88;;;2.32;50.87
64687;BME280;51113;53.646;-113.674;2023-04-23T11:16:43;93232.19;;;2.32;51.17
64687;BME280;51113;53.646;-113.674;2023-04-23T11:19:11;93241.22;;;2.34;50.47
64687;BME280;51113;53.646;-113.674;2023-04-23T11:22:13;93225.94;;;2.39;49.93
64687;BME280;51113;53.646;-113.674;2023-04-23T11:24:43;93226.84;;;2.33;50.93
64687;BME280;51113;53.646;-113.674;2023-04-23T11:27:17;93224.50;;;2.32;50.49
64687;BME280;51113;53.646;-113.674;2023-04-23T11:29:46;93228.50;;;2.28;50.58
64687;BME280;51113;53.646;-113.674;2023-04-23T11:32:15;93223.91;;;2.18;51.17
64687;BME280;51113;53.646;-113.674;2023-04-23T11:34:46;93218.91;;;2.23;50.67
64687;BME280;51113;53.646;-113.674;2023-04-23T11:37:17;93205.97;;;2.18;50.84
64687;BME280;51113;53.646;-113.674;2023-04-23T11:39:46;93219.34;;;2.20;50.74
64687;BME280;51113;53.646;-113.674;2023-04-23T11:42:16;93214.25;;;2.32;50.82
64687;BME280;51113;53.646;-113.674;2023-04-23T11:44:47;93210.66;;;2.21;50.93
64687;BME280;51113;53.646;-113.674;2023-04-23T11:47:16;93204.97;;;2.19;51.76
64687;BME280;51113;53.646;-113.674;2023-04-23T11:49:47;93164.41;;;1.92;50.91
64687;BME280;51113;53.646;-113.674;2023-04-23T11:52:16;93213.88;;;2.16;51.64
64687;BME280;51113;53.646;-113.674;2023-04-23T11:54:44;93201.97;;;2.10;51.55
64687;BME280;51113;53.646;-113.674;2023-04-23T11:57:12;93204.63;;;2.15;51.43
64687;BME280;51113;53.646;-113.674;2023-04-23T11:59:41;93207.06;;;2.10;52.13
64687;BME280;51113;53.646;-113.674;2023-04-23T12:02:10;93207.19;;;2.04;52.61
64687;BME280;51113;53.646;-113.674;2023-04-23T12:04:42;93163.38;;;1.82;52.20
64687;BME280;51113;53.646;-113.674;2023-04-23T12:07:17;93207.06;;;2.10;52.14
64687;BME280;51113;53.646;-113.674;2023-04-23T12:09:57;93203.19;;;2.08;52.42
64687;BME280;51113;53.646;-113.674;2023-04-23T12:12:34;93158.03;;;1.83;52.63
64687;BME280;51113;53.646;-113.674;2023-04-23T12:15:05;93192.50;;;2.11;52.37
64687;BME280;51113;53.646;-113.674;2023-04-23T12:17:34;93191.38;;;2.07;52.60
64687;BME280;51113;53.646;-113.674;2023-04-23T12:20:04;93192.25;;;2.01;52.52
64687;BME280;51113;53.646;-113.674;2023-04-23T12:22:34;93185.91;;;2.03;52.73
64687;BME280;51113;53.646;-113.674;2023-04-23T12:25:04;93195.38;;;2.03;53.36
64687;BME280;51113;53.646;-113.674;2023-04-23T12:27:39;93195.94;;;2.05;53.24
64687;BME280;51113;53.646;-113.674;2023-04-23T12:30:10;93190.13;;;1.98;53.58
64687;BME280;51113;53.646;-113.674;2023-04-23T12:32:38;93194.13;;;1.93;53.63
64687;BME280;51113;53.646;-113.674;2023-04-23T12:35:07;93185.44;;;1.94;53.59
64687;BME280;51113;53.646;-113.674;2023-04-23T12:37:37;93183.19;;;1.86;53.88
64687;BME280;51113;53.646;-113.674;2023-04-23T12:40:06;93194.56;;;1.90;53.83
64687;BME280;51113;53.646;-113.674;2023-04-23T12:42:35;93197.56;;;1.87;54.13
64687;BME280;51113;53.646;-113.674;2023-04-23T12:45:08;93200.47;;;1.91;53.94
64687;BME280;51113;53.646;-113.674;2023-04-23T12:47:37;93163.22;;;1.65;54.59
64687;BME280;51113;53.646;-113.674;2023-04-23T12:50:06;93169.00;;;1.72;54.79
64687;BME280;51113;53.646;-113.674;2023-04-23T12:52:35;93204.72;;;1.97;54.83
64687;BME280;51113;53.646;-113.674;2023-04-23T12:55:04;93165.03;;;1.76;54.71